Time;durP1;ratioP1;P1;durP2;ratioP2;P2;SDS_P1;SDS_P2;PMS_P1;PMS_P2;Temp;Humidity;BMP_temperature;BMP_pressure;BME280_temperature;BME280_humidity;BME280_pressure;Samples;Min_cycle;Max_cycle;Signal;HPM_P1;HPM_P2
2023/03/29 00:00:12;;;;;;;;;15.67;15.67;;;;;;;;5073418;27;45449;-56
2023/03/29 00:02:38;;;;;;;;;16.00;15.00;;;;;;;;5061345;27;45547;-56
2023/03/29 00:05:05;;;;;;;;;16.75;15.75;;;;;;;;5072624;27;45595;-55
2023/03/29 00:07:32;;;;;;;;;17.00;16.25;;;;;;;;5071361;27;45846;-55
2023/03/29 00:09:57;;;;;;;;;19.00;15.00;;;;;;;;5072783;27;45536;-57
2023/03/29 00:12:23;;;;;;;;;14.33;12.33;;;;;;;;5063461;28;45594;-55
2023/03/29 00:14:49;;;;;;;;;17.00;17.00;;;;;;;;5068640;27;45737;-55
2023/03/29 00:17:15;;;;;;;;;15.00;14.67;;;;;;;;5072395;27;45559;-52
2023/03/29 00:19:41;;;;;;;;;20.50;14.00;;;;;;;;5072904;27;45525;-57
2023/03/29 00:22:07;;;;;;;;;14.00;12.67;;;;;;;;5066840;27;45590;-54
2023/03/29 00:24:32;;;;;;;;;13.00;13.00;;;;;;;;5072752;27;45525;-56
2023/03/29 00:26:58;;;;;;;;;14.00;14.00;;;;;;;;5072800;27;45855;-56
2023/03/29 00:29:23;;;;;;;;;13.33;12.00;;;;;;;;5073218;27;45418;-55
2023/03/29 00:31:52;;;;;;;;;12.67;12.67;;;;;;;;5072522;27;45508;-55
2023/03/29 00:34:18;;;;;;;;;18.67;16.00;;;;;;;;5072877;27;45797;-57
2023/03/29 00:36:44;;;;;;;;;13.67;11.67;;;;;;;;5072680;27;45560;-56
2023/03/29 00:39:09;;;;;;;;;11.33;11.33;;;;;;;;5071760;28;45473;-53
2023/03/29 00:41:35;;;;;;;;;10.33;10.33;;;;;;;;5071613;27;48273;-55
2023/03/29 00:44:01;;;;;;;;;12.00;12.00;;;;;;;;5072592;27;45550;-57
2023/03/29 00:46:28;;;;;;;;;12.67;12.67;;;;;;;;5071222;27;45536;-57
2023/03/29 00:48:55;;;;;;;;;11.33;11.00;;;;;;;;5072784;27;46051;-54
2023/03/29 00:51:22;;;;;;;;;11.00;11.00;;;;;;;;5072273;28;46247;-54
2023/03/29 00:53:49;;;;;;;;;15.00;13.00;;;;;;;;5072546;27;45506;-57
2023/03/29 00:56:23;;;;;;;;;12.00;12.00;;;;;;;;5071854;27;45445;-57
2023/03/29 00:58:56;;;;;;;;;13.00;11.67;;;;;;;;5069147;27;45785;-57
2023/03/29 01:01:34;;;;;;;;;12.67;12.33;;;;;;;;5072204;28;45500;-53
2023/03/29 01:04:08;;;;;;;;;14.00;13.00;;;;;;;;5075141;27;45485;-57
2023/03/29 01:06:36;;;;;;;;;8.67;8.67;;;;;;;;5076016;27;45485;-55
2023/03/29 01:09:07;;;;;;;;;13.33;12.00;;;;;;;;5075101;27;45516;-57
2023/03/29 01:11:36;;;;;;;;;12.00;12.00;;;;;;;;5075435;27;45552;-56
2023/03/29 01:14:04;;;;;;;;;11.33;9.67;;;;;;;;5073000;27;45568;-56
2023/03/29 01:16:30;;;;;;;;;11.00;11.00;;;;;;;;5075565;27;45560;-57
2023/03/29 01:18:59;;;;;;;;;10.33;10.33;;;;;;;;5075826;27;45506;-58
2023/03/29 01:21:28;;;;;;;;;12.67;11.33;;;;;;;;5069533;27;47140;-56
2023/03/29 01:24:05;;;;;;;;;9.67;7.67;;;;;;;;5066501;28;45541;-56
2023/03/29 01:26:33;;;;;;;;;10.33;10.00;;;;;;;;5072875;27;45540;-56
2023/03/29 01:29:02;;;;;;;;;11.00;11.00;;;;;;;;5065563;27;45647;-54
2023/03/29 01:31:29;;;;;;;;;10.67;10.67;;;;;;;;5067249;27;46132;-55
2023/03/29 01:33:57;;;;;;;;;10.33;9.67;;;;;;;;5075289;27;45418;-54
2023/03/29 01:36:36;;;;;;;;;11.00;9.33;;;;;;;;5061377;27;45989;-55
2023/03/29 01:39:05;;;;;;;;;11.00;10.00;;;;;;;;5075578;27;45576;-56
2023/03/29 01:41:39;;;;;;;;;10.33;10.33;;;;;;;;5081888;27;46153;-56
2023/03/29 01:44:06;;;;;;;;;11.00;11.00;;;;;;;;5073819;27;46094;-51
2023/03/29 01:46:37;;;;;;;;;12.00;9.33;;;;;;;;5075058;27;45467;-56
2023/03/29 01:49:10;;;;;;;;;12.33;11.33;;;;;;;;5075429;27;45453;-54
2023/03/29 01:51:35;;;;;;;;;5.33;5.33;;;;;;;;5074974;27;46479;-54
2023/03/29 01:54:04;;;;;;;;;9.67;8.33;;;;;;;;5075072;27;45520;-56
2023/03/29 01:56:31;;;;;;;;;11.33;11.33;;;;;;;;5075260;27;45530;-55
2023/03/29 01:58:59;;;;;;;;;10.00;8.67;;;;;;;;5075178;27;45655;-55
2023/03/29 02:01:28;;;;;;;;;11.67;11.67;;;;;;;;5074884;27;45575;-55
2023/03/29 02:03:58;;;;;;;;;15.67;13.00;;;;;;;;5074538;27;45509;-53
2023/03/29 02:06:25;;;;;;;;;10.00;8.33;;;;;;;;5075096;27;45546;-55
2023/03/29 02:08:51;;;;;;;;;11.00;8.33;;;;;;;;5075078;27;45571;-56
2023/03/29 02:11:17;;;;;;;;;11.67;9.67;;;;;;;;5074698;27;45553;-57
2023/03/29 02:13:42;;;;;;;;;12.67;12.67;;;;;;;;5074787;27;45367;-55
2023/03/29 02:16:11;;;;;;;;;12.00;12.00;;;;;;;;5074366;27;45500;-55
2023/03/29 02:18:37;;;;;;;;;11.67;11.33;;;;;;;;5074741;27;45551;-54
2023/03/29 02:21:02;;;;;;;;;9.67;8.00;;;;;;;;5074510;27;45993;-54
2023/03/29 02:23:40;;;;;;;;;14.67;13.33;;;;;;;;5073148;27;45535;-56
2023/03/29 02:26:07;;;;;;;;;12.67;12.00;;;;;;;;5073094;28;45444;-54
2023/03/29 02:28:33;;;;;;;;;6.67;6.67;;;;;;;;5074672;27;45475;-55
2023/03/29 02:31:21;;;;;;;;;12.67;11.33;;;;;;;;5074051;27;45677;-56
2023/03/29 02:33:50;;;;;;;;;13.00;11.00;;;;;;;;5074448;27;45521;-56
2023/03/29 02:36:42;;;;;;;;;12.00;10.00;;;;;;;;5074536;27;45567;-56
2023/03/29 02:39:12;;;;;;;;;11.00;11.00;;;;;;;;5070541;27;45580;-57
2023/03/29 02:41:38;;;;;;;;;9.67;9.67;;;;;;;;5074189;27;45481;-56
2023/03/29 02:44:07;;;;;;;;;10.67;10.67;;;;;;;;5074116;27;45525;-56
2023/03/29 02:46:32;;;;;;;;;12.00;11.00;;;;;;;;5074391;27;45480;-54
2023/03/29 02:48:58;;;;;;;;;15.33;11.33;;;;;;;;5074380;28;45439;-55
2023/03/29 02:51:27;;;;;;;;;9.67;9.67;;;;;;;;5074293;27;45512;-52
2023/03/29 02:53:59;;;;;;;;;11.00;10.67;;;;;;;;5074061;27;45998;-55
2023/03/29 02:56:24;;;;;;;;;13.33;12.00;;;;;;;;5073411;28;45469;-56
2023/03/29 02:58:49;;;;;;;;;13.33;12.00;;;;;;;;5072911;27;45422;-57
2023/03/29 03:01:16;;;;;;;;;12.00;11.00;;;;;;;;5074204;27;45424;-55
2023/03/29 03:03:41;;;;;;;;;10.67;8.67;;;;;;;;5074234;27;45494;-57
2023/03/29 03:06:07;;;;;;;;;11.33;11.33;;;;;;;;5074185;27;45474;-56
2023/03/29 03:08:32;;;;;;;;;9.67;9.67;;;;;;;;5074291;27;45686;-56
2023/03/29 03:10:58;;;;;;;;;12.00;12.00;;;;;;;;5073094;28;45527;-54
2023/03/29 03:13:23;;;;;;;;;11.00;11.00;;;;;;;;5072151;27;45514;-56
2023/03/29 03:15:49;;;;;;;;;11.00;9.67;;;;;;;;5073953;27;45513;-57
2023/03/29 03:18:15;;;;;;;;;12.00;10.67;;;;;;;;5072458;28;45604;-55
2023/03/29 03:20:40;;;;;;;;;12.33;11.33;;;;;;;;5071714;27;45874;-55
2023/03/29 03:23:07;;;;;;;;;12.00;12.00;;;;;;;;5073466;27;45485;-55
2023/03/29 03:25:34;;;;;;;;;7.33;7.00;;;;;;;;5073651;27;45549;-53
2023/03/29 03:27:59;;;;;;;;;10.33;10.33;;;;;;;;5072294;28;45500;-54
2023/03/29 03:30:25;;;;;;;;;12.00;12.00;;;;;;;;5072976;27;45473;-54
2023/03/29 03:32:53;;;;;;;;;10.00;10.00;;;;;;;;5073768;28;45517;-56
2023/03/29 03:35:18;;;;;;;;;8.33;8.33;;;;;;;;5073577;27;45532;-52
2023/03/29 03:37:44;;;;;;;;;12.33;12.33;;;;;;;;5071111;27;45346;-56
2023/03/29 03:40:10;;;;;;;;;15.00;14.50;;;;;;;;5070733;27;45827;-59
2023/03/29 03:42:36;;;;;;;;;13.00;12.00;;;;;;;;5062416;27;45515;-56
2023/03/29 03:45:01;;;;;;;;;14.33;14.33;;;;;;;;5072269;27;45669;-56
2023/03/29 03:47:27;;;;;;;;;13.00;13.00;;;;;;;;5069863;27;45656;-56
2023/03/29 03:49:52;;;;;;;;;13.33;12.67;;;;;;;;5073282;27;47541;-56
2023/03/29 03:52:17;;;;;;;;;15.00;13.00;;;;;;;;5073473;27;45450;-56
2023/03/29 03:54:45;;;;;;;;;12.33;10.67;;;;;;;;5073442;27;45557;-57
2023/03/29 03:57:11;;;;;;;;;11.00;10.33;;;;;;;;5073698;28;45524;-56
2023/03/29 03:59:37;;;;;;;;;10.67;10.67;;;;;;;;5073174;28;45583;-56
2023/03/29 04:02:02;;;;;;;;;7.33;7.33;;;;;;;;5071505;27;45382;-56
2023/03/29 04:04:28;;;;;;;;;11.67;10.67;;;;;;;;5068862;27;45423;-56
2023/03/29 04:06:53;;;;;;;;;9.67;9.33;;;;;;;;5072199;27;45446;-57
2023/03/29 04:09:19;;;;;;;;;11.00;11.00;;;;;;;;5073199;28;46165;-55
2023/03/29 04:11:44;;;;;;;;;12.00;12.00;;;;;;;;5071692;27;45522;-56
2023/03/29 04:14:10;;;;;;;;;11.67;11.67;;;;;;;;5071992;28;45478;-57
2023/03/29 04:16:35;;;;;;;;;9.00;9.00;;;;;;;;5071657;27;45538;-56
2023/03/29 04:19:00;;;;;;;;;12.00;10.67;;;;;;;;5072299;27;45484;-56
2023/03/29 04:21:26;;;;;;;;;11.33;9.33;;;;;;;;5073089;28;45483;-54
2023/03/29 04:23:51;;;;;;;;;13.33;11.67;;;;;;;;5073118;28;45445;-55
2023/03/29 04:26:16;;;;;;;;;11.67;11.67;;;;;;;;5073238;28;45625;-57
2023/03/29 04:28:42;;;;;;;;;12.33;11.00;;;;;;;;5072515;28;45528;-58
2023/03/29 04:31:09;;;;;;;;;13.00;13.00;;;;;;;;5072764;27;45433;-57
2023/03/29 04:33:34;;;;;;;;;9.00;8.00;;;;;;;;5073037;27;45531;-56
2023/03/29 04:35:59;;;;;;;;;7.00;7.00;;;;;;;;5072209;27;45395;-56
2023/03/29 04:38:25;;;;;;;;;10.33;10.33;;;;;;;;5065805;27;45492;-57
2023/03/29 04:40:50;;;;;;;;;10.00;10.00;;;;;;;;5075005;27;45486;-56
2023/03/29 04:43:15;;;;;;;;;13.00;10.33;;;;;;;;5076441;27;45445;-57
2023/03/29 04:45:41;;;;;;;;;8.33;8.33;;;;;;;;5076328;27;45568;-57
2023/03/29 04:48:06;;;;;;;;;10.67;10.67;;;;;;;;5077627;27;46329;-54
2023/03/29 04:50:31;;;;;;;;;11.00;9.33;;;;;;;;5076094;27;45423;-56
2023/03/29 04:52:59;;;;;;;;;11.33;11.00;;;;;;;;5074516;27;45552;-55
2023/03/29 04:55:24;;;;;;;;;13.33;11.00;;;;;;;;5067242;28;45592;-55
2023/03/29 04:57:50;;;;;;;;;9.33;8.67;;;;;;;;5075810;27;45383;-58
2023/03/29 05:00:15;;;;;;;;;8.33;8.33;;;;;;;;5076149;27;45492;-57
2023/03/29 05:02:42;;;;;;;;;9.67;9.67;;;;;;;;5076281;27;45530;-55
2023/03/29 05:05:07;;;;;;;;;10.67;7.67;;;;;;;;5076188;27;45453;-56
2023/03/29 05:07:32;;;;;;;;;6.33;6.00;;;;;;;;5073683;28;45501;-56
2023/03/29 05:09:58;;;;;;;;;6.67;6.67;;;;;;;;5068683;27;45501;-56
2023/03/29 05:12:24;;;;;;;;;10.33;10.33;;;;;;;;5075131;27;45479;-56
2023/03/29 05:14:49;;;;;;;;;7.67;7.33;;;;;;;;5074770;27;45360;-57
2023/03/29 05:17:14;;;;;;;;;10.67;8.33;;;;;;;;5076253;27;45411;-55
2023/03/29 05:19:40;;;;;;;;;8.33;8.33;;;;;;;;5076447;27;45510;-57
2023/03/29 05:22:05;;;;;;;;;7.67;7.67;;;;;;;;5076251;27;45532;-56
2023/03/29 05:24:30;;;;;;;;;11.67;10.33;;;;;;;;5076408;27;45647;-58
2023/03/29 05:26:55;;;;;;;;;8.00;8.00;;;;;;;;5075800;27;45520;-52
2023/03/29 05:29:22;;;;;;;;;7.67;7.67;;;;;;;;5062658;28;45589;-58
2023/03/29 05:31:47;;;;;;;;;9.33;9.33;;;;;;;;5075774;27;45514;-58
2023/03/29 05:34:12;;;;;;;;;8.00;8.00;;;;;;;;5075516;27;45553;-57
2023/03/29 05:36:38;;;;;;;;;11.67;10.67;;;;;;;;5075462;27;45496;-57
2023/03/29 05:39:04;;;;;;;;;6.00;6.00;;;;;;;;5076018;27;45508;-54
2023/03/29 05:41:31;;;;;;;;;10.33;9.33;;;;;;;;5074410;27;45518;-58
2023/03/29 05:43:56;;;;;;;;;10.00;10.00;;;;;;;;5075672;27;45719;-55
2023/03/29 05:46:21;;;;;;;;;6.33;6.33;;;;;;;;5075166;27;46314;-56
2023/03/29 05:48:47;;;;;;;;;9.00;8.67;;;;;;;;5075300;27;45423;-57
2023/03/29 05:51:12;;;;;;;;;7.33;7.33;;;;;;;;5073768;27;45508;-56
2023/03/29 05:53:37;;;;;;;;;9.33;9.33;;;;;;;;5065623;27;45648;-58
2023/03/29 05:56:03;;;;;;;;;10.00;10.00;;;;;;;;5074871;27;46536;-54
2023/03/29 05:58:29;;;;;;;;;10.00;10.00;;;;;;;;5074967;27;45545;-58
2023/03/29 06:00:56;;;;;;;;;8.33;8.33;;;;;;;;5075014;27;45457;-57
2023/03/29 06:03:26;;;;;;;;;8.33;8.33;;;;;;;;5062604;28;45579;-57
2023/03/29 06:06:01;;;;;;;;;10.00;10.00;;;;;;;;5073066;27;45603;-57
2023/03/29 06:08:27;;;;;;;;;7.67;7.67;;;;;;;;5064150;27;45516;-56
2023/03/29 06:10:59;;;;;;;;;9.00;9.00;;;;;;;;5074964;27;45496;-57
2023/03/29 06:13:25;;;;;;;;;11.33;6.67;;;;;;;;5063194;27;45469;-57
2023/03/29 06:15:50;;;;;;;;;13.33;9.67;;;;;;;;5074514;27;45516;-58
2023/03/29 06:18:15;;;;;;;;;11.00;10.33;;;;;;;;5073723;27;45552;-57
2023/03/29 06:20:41;;;;;;;;;12.00;7.33;;;;;;;;5073657;27;45580;-57
2023/03/29 06:23:07;;;;;;;;;8.33;7.00;;;;;;;;5074829;27;45481;-57
2023/03/29 06:25:33;;;;;;;;;10.67;10.00;;;;;;;;5066036;27;45599;-57
2023/03/29 06:27:58;;;;;;;;;10.00;10.00;;;;;;;;5069426;27;45587;-58
2023/03/29 06:30:23;;;;;;;;;8.33;7.33;;;;;;;;5074785;27;45554;-56
2023/03/29 06:32:49;;;;;;;;;13.00;9.67;;;;;;;;5074688;27;45510;-55
2023/03/29 06:35:14;;;;;;;;;11.00;9.33;;;;;;;;5074303;27;45877;-56
2023/03/29 06:37:48;;;;;;;;;7.67;7.67;;;;;;;;5074459;27;45477;-57
2023/03/29 06:40:13;;;;;;;;;13.00;10.33;;;;;;;;5074683;27;45520;-56
2023/03/29 06:42:38;;;;;;;;;8.33;8.33;;;;;;;;5074307;27;45647;-57
2023/03/29 06:45:04;;;;;;;;;7.67;7.67;;;;;;;;5074009;27;45717;-57
2023/03/29 06:47:30;;;;;;;;;9.00;9.00;;;;;;;;5073930;27;45492;-57
2023/03/29 06:49:55;;;;;;;;;6.67;6.67;;;;;;;;5074297;27;45576;-57
2023/03/29 06:52:21;;;;;;;;;11.00;11.00;;;;;;;;5074109;27;45508;-58
2023/03/29 06:54:46;;;;;;;;;11.00;11.00;;;;;;;;5073550;27;45445;-56
2023/03/29 06:57:11;;;;;;;;;10.00;9.67;;;;;;;;5073949;27;45501;-56
2023/03/29 06:59:37;;;;;;;;;12.67;11.33;;;;;;;;5073484;27;45488;-58
2023/03/29 07:02:02;;;;;;;;;11.00;10.00;;;;;;;;5073758;27;45451;-55
2023/03/29 07:04:28;;;;;;;;;11.67;11.00;;;;;;;;5073505;28;45578;-58
2023/03/29 07:07:00;;;;;;;;;14.00;12.33;;;;;;;;5073852;27;45540;-57
2023/03/29 07:09:29;;;;;;;;;15.67;14.33;;;;;;;;5073740;27;45582;-58
2023/03/29 07:11:58;;;;;;;;;14.00;14.00;;;;;;;;5073717;27;45449;-58
2023/03/29 07:14:27;;;;;;;;;10.67;8.00;;;;;;;;5073382;27;45525;-58
2023/03/29 07:16:52;;;;;;;;;15.67;14.67;;;;;;;;5071944;27;45553;-58
2023/03/29 07:19:21;;;;;;;;;13.00;11.00;;;;;;;;5073682;27;45501;-56
2023/03/29 07:21:46;;;;;;;;;17.00;14.67;;;;;;;;5073630;27;45651;-56
2023/03/29 07:24:11;;;;;;;;;12.00;12.00;;;;;;;;5073432;27;46135;-58
2023/03/29 07:26:37;;;;;;;;;12.00;11.00;;;;;;;;5073702;27;45531;-58
2023/03/29 07:29:02;;;;;;;;;10.67;9.33;;;;;;;;5073645;27;45519;-56
2023/03/29 07:31:28;;;;;;;;;13.33;13.33;;;;;;;;5073359;27;46065;-56
2023/03/29 07:33:54;;;;;;;;;13.00;13.00;;;;;;;;5073207;27;45872;-54
2023/03/29 07:36:20;;;;;;;;;11.67;9.33;;;;;;;;5073630;28;45476;-55
2023/03/29 07:38:45;;;;;;;;;12.67;10.67;;;;;;;;5073623;27;45612;-57
2023/03/29 07:41:11;;;;;;;;;12.33;12.33;;;;;;;;5073399;27;45576;-58
2023/03/29 07:43:36;;;;;;;;;12.00;12.00;;;;;;;;5073420;27;45418;-56
2023/03/29 07:46:03;;;;;;;;;12.33;12.00;;;;;;;;5073229;27;45659;-60
2023/03/29 07:48:29;;;;;;;;;13.00;13.00;;;;;;;;5073524;27;45527;-56
2023/03/29 07:50:54;;;;;;;;;11.67;11.67;;;;;;;;5073355;27;45550;-58
2023/03/29 07:53:20;;;;;;;;;14.00;12.00;;;;;;;;5073090;27;45449;-59
2023/03/29 07:55:47;;;;;;;;;13.33;11.33;;;;;;;;5073059;27;45518;-55
2023/03/29 07:58:13;;;;;;;;;14.67;14.67;;;;;;;;5073448;28;45524;-58
2023/03/29 08:00:38;;;;;;;;;18.00;17.00;;;;;;;;5072918;27;45537;-56
2023/03/29 08:03:04;;;;;;;;;12.00;11.00;;;;;;;;5072649;27;45504;-58
2023/03/29 08:05:29;;;;;;;;;15.00;12.67;;;;;;;;5073105;27;45391;-59
2023/03/29 08:07:54;;;;;;;;;13.67;12.00;;;;;;;;5073178;27;45516;-57
2023/03/29 08:10:20;;;;;;;;;12.00;11.67;;;;;;;;5073312;27;45501;-59
2023/03/29 08:12:47;;;;;;;;;12.67;10.33;;;;;;;;5073561;27;45476;-59
2023/03/29 08:15:12;;;;;;;;;11.00;10.67;;;;;;;;5076273;27;45548;-56
2023/03/29 08:17:38;;;;;;;;;10.67;10.67;;;;;;;;5076481;27;45567;-58
2023/03/29 08:20:04;;;;;;;;;12.67;11.67;;;;;;;;5076637;27;45468;-58
2023/03/29 08:22:30;;;;;;;;;9.00;8.00;;;;;;;;5076821;27;46159;-58
2023/03/29 08:24:56;;;;;;;;;8.33;7.33;;;;;;;;5076339;27;45468;-58
2023/03/29 08:27:21;;;;;;;;;8.33;7.00;;;;;;;;5076482;27;45466;-59
2023/03/29 08:29:46;;;;;;;;;10.00;7.00;;;;;;;;5076047;27;45690;-58
2023/03/29 08:32:11;;;;;;;;;11.67;10.33;;;;;;;;5075791;27;46173;-56
2023/03/29 08:34:37;;;;;;;;;7.00;6.67;;;;;;;;5076099;27;45461;-55
2023/03/29 08:37:03;;;;;;;;;5.00;5.00;;;;;;;;5076348;27;45744;-58
2023/03/29 08:39:28;;;;;;;;;6.33;6.33;;;;;;;;5076301;27;45473;-57
2023/03/29 08:41:57;;;;;;;;;10.00;7.00;;;;;;;;5074662;27;46293;-57
2023/03/29 08:44:31;;;;;;;;;10.00;10.00;;;;;;;;5076102;27;45581;-58
2023/03/29 08:47:12;;;;;;;;;7.00;7.00;;;;;;;;5076100;27;45503;-54
2023/03/29 08:49:39;;;;;;;;;12.00;10.00;;;;;;;;5076061;27;45506;-58
2023/03/29 08:52:11;;;;;;;;;13.67;13.67;;;;;;;;5075595;27;46083;-57
2023/03/29 08:54:40;;;;;;;;;10.33;10.33;;;;;;;;5075544;27;45564;-56
2023/03/29 08:57:10;;;;;;;;;8.00;8.00;;;;;;;;5075839;27;45583;-56
2023/03/29 08:59:36;;;;;;;;;6.33;6.33;;;;;;;;5075765;27;45537;-55
2023/03/29 09:02:03;;;;;;;;;7.33;6.67;;;;;;;;5075687;27;46061;-58
2023/03/29 09:04:34;;;;;;;;;7.00;7.00;;;;;;;;5075688;27;45528;-58
2023/03/29 09:07:01;;;;;;;;;11.33;8.33;;;;;;;;5075828;27;45519;-57
2023/03/29 09:09:30;;;;;;;;;11.00;9.00;;;;;;;;5074517;27;46010;-58
2023/03/29 09:12:02;;;;;;;;;8.00;8.00;;;;;;;;5075721;27;46259;-58
2023/03/29 09:14:46;;;;;;;;;7.00;7.00;;;;;;;;5074219;27;45513;-58
2023/03/29 09:17:21;;;;;;;;;8.00;7.33;;;;;;;;5058032;27;45548;-58
2023/03/29 09:19:49;;;;;;;;;7.00;7.00;;;;;;;;5067290;28;45622;-57
2023/03/29 09:22:33;;;;;;;;;8.00;8.00;;;;;;;;5073984;27;47803;-58
2023/03/29 09:25:04;;;;;;;;;13.67;10.67;;;;;;;;5075479;27;45381;-57
2023/03/29 09:27:40;;;;;;;;;6.00;6.00;;;;;;;;5075576;27;45555;-58
2023/03/29 09:30:24;;;;;;;;;7.00;7.00;;;;;;;;5075364;27;45575;-57
2023/03/29 09:33:11;;;;;;;;;6.00;6.00;;;;;;;;5075448;27;45449;-57
2023/03/29 09:35:40;;;;;;;;;5.33;5.33;;;;;;;;5075097;27;45507;-58
2023/03/29 09:38:09;;;;;;;;;7.67;7.33;;;;;;;;5075525;27;45411;-58
2023/03/29 09:40:43;;;;;;;;;6.00;5.00;;;;;;;;5075239;27;45657;-59
2023/03/29 09:43:11;;;;;;;;;5.33;4.67;;;;;;;;5075321;27;45449;-57
2023/03/29 09:45:37;;;;;;;;;7.67;7.33;;;;;;;;5074954;27;45434;-58
2023/03/29 09:48:11;;;;;;;;;7.00;7.00;;;;;;;;5075455;27;45470;-56
2023/03/29 09:50:38;;;;;;;;;7.00;7.00;;;;;;;;5073441;27;45391;-58
2023/03/29 09:53:06;;;;;;;;;5.00;5.00;;;;;;;;5074621;27;45568;-58
2023/03/29 09:55:32;;;;;;;;;6.00;5.00;;;;;;;;5074778;27;45523;-58
2023/03/29 09:58:04;;;;;;;;;6.33;5.33;;;;;;;;5073395;27;45421;-57
2023/03/29 10:00:30;;;;;;;;;7.33;6.33;;;;;;;;5074942;28;45514;-58
2023/03/29 10:02:56;;;;;;;;;6.67;6.33;;;;;;;;5074714;27;45426;-58
2023/03/29 10:05:23;;;;;;;;;7.67;6.67;;;;;;;;5073943;27;45523;-59
2023/03/29 10:07:50;;;;;;;;;6.00;6.00;;;;;;;;5074585;27;45557;-58
2023/03/29 10:10:33;;;;;;;;;7.00;4.00;;;;;;;;5069737;27;45464;-58
2023/03/29 10:12:59;;;;;;;;;7.67;5.67;;;;;;;;5073808;28;45564;-60
2023/03/29 10:15:28;;;;;;;;;4.33;4.33;;;;;;;;5074138;27;45509;-58
2023/03/29 10:17:57;;;;;;;;;8.67;7.67;;;;;;;;5074673;27;45434;-58
2023/03/29 10:20:23;;;;;;;;;8.67;8.67;;;;;;;;5074335;27;45489;-58
2023/03/29 10:22:53;;;;;;;;;9.67;9.67;;;;;;;;5074147;27;45560;-58
2023/03/29 10:25:24;;;;;;;;;8.00;8.00;;;;;;;;5074261;28;45550;-58
2023/03/29 10:27:49;;;;;;;;;5.33;5.33;;;;;;;;5074479;27;45542;-58
2023/03/29 10:30:22;;;;;;;;;5.67;4.67;;;;;;;;5073940;27;45642;-59
2023/03/29 10:32:54;;;;;;;;;8.00;7.33;;;;;;;;5054177;28;45565;-58
2023/03/29 10:35:32;;;;;;;;;7.67;7.67;;;;;;;;5067014;27;45481;-58
2023/03/29 10:37:58;;;;;;;;;11.33;9.33;;;;;;;;5074334;27;45526;-57
2023/03/29 10:40:31;;;;;;;;;4.67;4.67;;;;;;;;5074384;27;45524;-58
2023/03/29 10:43:15;;;;;;;;;7.00;7.00;;;;;;;;5060447;27;46343;-57
2023/03/29 10:45:41;;;;;;;;;6.67;4.00;;;;;;;;5073848;27;45501;-56
2023/03/29 10:48:10;;;;;;;;;4.67;3.67;;;;;;;;5074023;27;45535;-58
2023/03/29 10:50:36;;;;;;;;;4.00;4.00;;;;;;;;5074057;27;45443;-58
2023/03/29 10:53:03;;;;;;;;;4.00;4.00;;;;;;;;5073679;27;45997;-57
2023/03/29 10:55:33;;;;;;;;;14.00;12.33;;;;;;;;5073565;27;46010;-57
2023/03/29 10:58:14;;;;;;;;;5.33;5.00;;;;;;;;5073109;27;45480;-53
2023/03/29 11:00:45;;;;;;;;;4.00;4.00;;;;;;;;5067585;27;45575;-58
2023/03/29 11:03:11;;;;;;;;;8.00;8.00;;;;;;;;5072714;27;45477;-58
2023/03/29 11:05:56;;;;;;;;;2.00;2.00;;;;;;;;5073818;27;45398;-58
2023/03/29 11:08:25;;;;;;;;;3.00;3.00;;;;;;;;5069521;28;45732;-58
2023/03/29 11:11:10;;;;;;;;;30.00;27.67;;;;;;;;5074658;27;45492;-58
2023/03/29 11:13:42;;;;;;;;;6.00;6.00;;;;;;;;5064250;27;46270;-58
2023/03/29 11:16:26;;;;;;;;;8.33;7.67;;;;;;;;5071855;27;45420;-58
2023/03/29 11:19:10;;;;;;;;;5.33;5.33;;;;;;;;5057009;27;46128;-59
2023/03/29 11:21:43;;;;;;;;;10.33;7.00;;;;;;;;5071990;27;45671;-59
2023/03/29 11:24:16;;;;;;;;;6.67;5.67;;;;;;;;5067648;27;46311;-59
2023/03/29 11:26:41;;;;;;;;;6.67;6.00;;;;;;;;5067147;28;45568;-58
2023/03/29 11:29:18;;;;;;;;;10.00;7.33;;;;;;;;5073456;27;45500;-58
2023/03/29 11:32:01;;;;;;;;;6.67;6.67;;;;;;;;5073561;27;45533;-59
2023/03/29 11:34:45;;;;;;;;;13.33;10.67;;;;;;;;5073148;27;45788;-59
2023/03/29 11:37:24;;;;;;;;;4.67;4.67;;;;;;;;5074388;27;45485;-58
2023/03/29 11:39:55;;;;;;;;;5.00;4.00;;;;;;;;5064377;27;45501;-59
2023/03/29 11:42:22;;;;;;;;;6.67;6.67;;;;;;;;5062207;28;45473;-59
2023/03/29 11:44:50;;;;;;;;;6.33;6.33;;;;;;;;5068252;28;46134;-59
2023/03/29 11:47:18;;;;;;;;;8.67;7.67;;;;;;;;5072930;27;45464;-59
2023/03/29 11:49:55;;;;;;;;;5.33;3.67;;;;;;;;5069671;27;45892;-59
2023/03/29 11:52:21;;;;;;;;;2.00;2.00;;;;;;;;5067818;27;45456;-59
2023/03/29 11:54:52;;;;;;;;;5.00;3.33;;;;;;;;5073650;27;47387;-58
2023/03/29 11:57:22;;;;;;;;;4.67;4.00;;;;;;;;5072941;27;45564;-58
2023/03/29 11:59:52;;;;;;;;;4.00;2.00;;;;;;;;5071847;27;45543;-58
2023/03/29 12:02:30;;;;;;;;;4.33;4.00;;;;;;;;5072818;27;45571;-59
2023/03/29 12:04:58;;;;;;;;;5.00;4.00;;;;;;;;5071301;27;48170;-59
2023/03/29 12:07:32;;;;;;;;;8.33;5.67;;;;;;;;5071166;27;45497;-58
2023/03/29 12:10:00;;;;;;;;;3.67;3.67;;;;;;;;5072886;27;45469;-59
2023/03/29 12:12:28;;;;;;;;;3.33;3.00;;;;;;;;5071999;27;45518;-58
2023/03/29 12:14:57;;;;;;;;;4.00;3.00;;;;;;;;5072681;27;46140;-58
2023/03/29 12:17:27;;;;;;;;;3.00;3.00;;;;;;;;5071212;28;45477;-58
2023/03/29 12:19:59;;;;;;;;;3.33;3.00;;;;;;;;5072845;27;45521;-58
2023/03/29 12:22:26;;;;;;;;;4.00;3.00;;;;;;;;5072518;28;45465;-59
2023/03/29 12:24:53;;;;;;;;;4.00;2.33;;;;;;;;5070955;28;45486;-58
2023/03/29 12:27:28;;;;;;;;;1.00;1.00;;;;;;;;5071175;28;45588;-59
2023/03/29 12:29:53;;;;;;;;;6.00;4.67;;;;;;;;5072755;27;45483;-58
2023/03/29 12:32:42;;;;;;;;;3.00;3.00;;;;;;;;5072352;27;45526;-58
2023/03/29 12:35:25;;;;;;;;;3.00;1.33;;;;;;;;5072652;27;45450;-59
2023/03/29 12:38:05;;;;;;;;;2.00;2.00;;;;;;;;5072701;28;45439;-59
2023/03/29 12:40:38;;;;;;;;;3.00;3.00;;;;;;;;5072670;27;45490;-59
2023/03/29 12:43:05;;;;;;;;;4.00;3.00;;;;;;;;5072744;27;45476;-58
2023/03/29 12:45:33;;;;;;;;;5.00;5.00;;;;;;;;5072293;27;46328;-58
2023/03/29 12:48:00;;;;;;;;;4.00;4.00;;;;;;;;5072227;27;45502;-58
2023/03/29 12:50:44;;;;;;;;;6.00;6.00;;;;;;;;5072538;27;45539;-58
2023/03/29 12:53:36;;;;;;;;;4.00;4.00;;;;;;;;5058845;28;45486;-58
2023/03/29 12:56:01;;;;;;;;;2.00;2.00;;;;;;;;5068535;28;46585;-58
2023/03/29 12:58:41;;;;;;;;;3.00;3.00;;;;;;;;5072517;27;45915;-59
2023/03/29 13:01:08;;;;;;;;;4.00;4.00;;;;;;;;5075783;27;45529;-58
2023/03/29 13:03:50;;;;;;;;;5.00;5.00;;;;;;;;5075908;27;45489;-59
2023/03/29 13:06:31;;;;;;;;;3.00;3.00;;;;;;;;5075522;27;45978;-58
2023/03/29 13:08:58;;;;;;;;;2.00;2.00;;;;;;;;5075863;27;45456;-58
2023/03/29 13:11:30;;;;;;;;;3.00;2.00;;;;;;;;5075760;27;45567;-58
2023/03/29 13:13:56;;;;;;;;;4.00;2.67;;;;;;;;5075720;27;45548;-58
2023/03/29 13:16:29;;;;;;;;;4.00;4.00;;;;;;;;5075073;27;46239;-59
2023/03/29 13:19:13;;;;;;;;;2.00;2.00;;;;;;;;5075626;27;45591;-58
2023/03/29 13:21:49;;;;;;;;;1.33;1.33;;;;;;;;5075881;27;45519;-58
2023/03/29 13:24:25;;;;;;;;;2.67;2.67;;;;;;;;5061990;27;45443;-59
2023/03/29 13:26:54;;;;;;;;;3.33;3.33;;;;;;;;5075164;27;46149;-59
2023/03/29 13:29:23;;;;;;;;;3.00;3.00;;;;;;;;5075405;27;45540;-58
2023/03/29 13:31:58;;;;;;;;;3.00;3.00;;;;;;;;5075286;27;45444;-58
2023/03/29 13:34:42;;;;;;;;;2.00;2.00;;;;;;;;5075164;27;45523;-58
2023/03/29 13:37:23;;;;;;;;;2.33;2.33;;;;;;;;5074754;27;46075;-59
2023/03/29 13:39:52;;;;;;;;;7.00;6.00;;;;;;;;5074947;27;45441;-58
2023/03/29 13:42:20;;;;;;;;;4.33;3.33;;;;;;;;5074990;27;45435;-57
2023/03/29 13:44:48;;;;;;;;;3.67;3.67;;;;;;;;5075235;27;45497;-57
2023/03/29 13:47:13;;;;;;;;;4.67;4.00;;;;;;;;5074888;27;46036;-57
2023/03/29 13:49:39;;;;;;;;;3.00;3.00;;;;;;;;5074783;27;45417;-58
2023/03/29 13:52:12;;;;;;;;;6.33;3.33;;;;;;;;5075055;27;45550;-57
2023/03/29 13:54:42;;;;;;;;;3.00;2.00;;;;;;;;5074749;27;45607;-57
2023/03/29 13:57:12;;;;;;;;;4.33;4.00;;;;;;;;5074610;27;45488;-59
2023/03/29 13:59:43;;;;;;;;;4.67;3.33;;;;;;;;5074440;27;46105;-59
2023/03/29 14:02:15;;;;;;;;;2.00;2.00;;;;;;;;5074754;27;45431;-58
2023/03/29 14:04:43;;;;;;;;;5.00;5.00;;;;;;;;5074716;27;45512;-58
2023/03/29 14:07:10;;;;;;;;;3.00;3.00;;;;;;;;5074470;27;45573;-58
2023/03/29 14:09:40;;;;;;;;;4.67;4.67;;;;;;;;5074365;27;45501;-58
2023/03/29 14:12:06;;;;;;;;;3.00;3.00;;;;;;;;5074141;28;45640;-58
2023/03/29 14:14:32;;;;;;;;;3.67;2.00;;;;;;;;5074429;27;45446;-59
2023/03/29 14:16:59;;;;;;;;;3.00;3.00;;;;;;;;5074622;27;46067;-58
2023/03/29 14:19:31;;;;;;;;;3.00;3.00;;;;;;;;5074819;28;45484;-58
2023/03/29 14:21:59;;;;;;;;;5.00;5.00;;;;;;;;5074583;27;45471;-59
2023/03/29 14:24:26;;;;;;;;;5.00;5.00;;;;;;;;5074455;28;45572;-59
2023/03/29 14:26:52;;;;;;;;;3.67;3.00;;;;;;;;5074304;27;45501;-59
2023/03/29 14:29:17;;;;;;;;;3.00;1.33;;;;;;;;5074335;27;45564;-58
2023/03/29 14:31:43;;;;;;;;;3.33;3.33;;;;;;;;5073652;27;45540;-59
2023/03/29 14:34:15;;;;;;;;;5.33;3.33;;;;;;;;5074421;28;45453;-58
2023/03/29 14:36:43;;;;;;;;;3.67;3.67;;;;;;;;5073985;27;45560;-58
2023/03/29 14:39:14;;;;;;;;;3.00;3.00;;;;;;;;5074285;27;45495;-58